• Join FlightAware (Why Join?)
  • Login
  • US Flag 
11:22AM EDT


 

Airport Tracker/Info


-or-


 

Live Flight TrackerFlight Track Log ✈ UAL1177 ✈ 23-May-2013 ✈ KDFW - KDEN

Flight Track Log - Related Links

Times and Time Zones

All times are in EDT time to prevent confusion due to time zone crossing. See the UAL1177 flight status page for this flight to view local times or setup timezone preferences in your user account.

Time Position Orientation Groundspeed Altitude Reporting Facility
EDT Latitude Longitude Course Direction KTS MPH feet Rate Location/Type
07:37PM 32.8833 -97.0500 320° Northwest 182 209 1,000  Level Dallas / Fort Worth TRACON
07:38PM 32.8500 -97.0500 180° South 214 246 2,200 2,160 Climbing Dallas / Fort Worth TRACON
07:39PM 32.7833 -97.0833 203° Southwest 256 295 4,700 2,700 Climbing Dallas / Fort Worth TRACON
07:40PM 32.7500 -97.1333 232° Southwest 277 319 7,700 2,760 Climbing Dallas / Fort Worth TRACON
07:41PM 32.8000 -97.2167 306° West 311 358 10,300 2,220 Climbing Dallas / Fort Worth TRACON
07:41PM 32.8164 -97.2181 356° North 314 361 10,500 1,920 Climbing Fort Worth Center
07:42PM 32.9064 -97.2156 North 370 426 12,700 2,700 Climbing Fort Worth Center
07:43PM 33.1086 -96.9252 320° Northwest  Level FlightAware Approximate
07:43PM 33.0128 -97.2128 North 359 413 15,900  Level Fort Worth Center
07:44PM 33.1025 -97.2100 North 354 407 18,200 2,400 Climbing Fort Worth Center
07:45PM 33.2131 -97.2047 North 354 407 20,800 2,040 Climbing Fort Worth Center
07:46PM 33.3069 -97.2022 North 364 419 22,300 1,620 Climbing Fort Worth Center
07:47PM 33.4322 -97.1994 North 379 436 24,100 1,320 Climbing Fort Worth Center
07:48PM 33.5450 -97.1942 North 393 452 25,000 420 Climbing Fort Worth Center
07:49PM 33.6578 -97.1889 North 399 459 25,000  Level Fort Worth Center
07:50PM 33.7703 -97.1861 North 399 459 25,000 540 Level Fort Worth Center
07:51PM 33.8789 -97.1808 North 399 459 26,100 1,200 Climbing Fort Worth Center
07:52PM 33.9936 -97.1781 North 404 465 27,500 1,200 Climbing Fort Worth Center
07:53PM 34.0875 -97.1753 North 404 465 28,500 1,140 Climbing Fort Worth Center
07:54PM 34.2108 -97.1850 356° North 404 465 29,800 1,200 Climbing Fort Worth Center
07:55PM 34.3089 -97.2575 329° Northwest 385 443 30,900 960 Climbing Fort Worth Center
07:56PM 34.4278 -97.2875 348° North 407 468 31,800 960 Climbing Fort Worth Center
07:57PM 34.5467 -97.3128 350° North 425 489 32,900 1,140 Climbing Fort Worth Center
07:58PM 34.6636 -97.3428 348° North 430 495 34,100 1,200 Climbing Fort Worth Center
07:59PM 34.7783 -97.3806 345° North 425 489 35,300 900 Climbing Fort Worth Center
08:00PM 34.8931 -97.4161 346° North 420 483 36,000 300 Climbing Fort Worth Center
08:01PM 35.0036 -97.4567 343° North 414 476 36,000  Level Fort Worth Center
08:02PM 35.1142 -97.4947 344° North 414 476 36,000  Level Fort Worth Center
08:04PM 35.3617 -97.5742 345° North 423 487 36,000  Level Kansas City Center
08:05PM 35.4792 -97.6061 348° North 424 488 36,000  Level Kansas City Center
08:06PM 35.6006 -97.6117 358° North 429 494 36,000  Level Kansas City Center
08:07PM 35.7478 -97.6239 356° North 434 499 36,000  Level Kansas City Center
08:08PM 35.8681 -97.6344 356° North 435 501 36,000  Level Kansas City Center
08:10PM 35.9889 -97.6486 355° North 435 501 36,000  Level Kansas City Center
08:11PM 36.0764 -97.7347 322° Northwest 414 476 36,000 -300 Level Kansas City Center
08:12PM 36.1289 -97.8531 299° West 398 458 35,500 -780 Descending Kansas City Center
08:13PM 36.1789 -97.9717 298° West 393 452 34,500 -780 Descending Kansas City Center
08:14PM 36.2381 -98.1172 297° West 389 448 34,000 -300 Descending Kansas City Center
08:15PM 36.2906 -98.2372 299° West 395 455 34,000  Level Kansas City Center
08:16PM 36.3397 -98.3567 297° West 392 451 34,000  Level Kansas City Center
08:17PM 36.3903 -98.4767 298° West 393 452 34,000  Level Kansas City Center
08:18PM 36.4400 -98.5961 297° West 392 451 34,000  Level Kansas City Center
08:19PM 36.4894 -98.7142 298° West 387 445 34,000  Level Kansas City Center
08:20PM 36.5372 -98.8336 296° West 387 445 34,000  Level Kansas City Center
08:21PM 36.5961 -98.9786 297° West 390 449 34,000  Level Kansas City Center
08:22PM 36.6461 -99.0969 298° West 390 449 34,000  Level Kansas City Center
08:23PM 36.6958 -99.2167 297° West 390 449 34,000  Level Kansas City Center
08:24PM 36.7450 -99.3386 297° West 391 450 34,000  Level Kansas City Center
08:25PM 36.7933 -99.4597 297° West 392 451 34,000  Level Kansas City Center
08:26PM 36.8428 -99.5822 297° West 394 453 34,000  Level Kansas City Center
08:27PM 36.8928 -99.7025 297° West 393 452 34,000  Level Kansas City Center
08:28PM 36.9533 -99.8467 298° West 390 449 34,000  Level Kansas City Center
08:29PM 36.9989 -99.9756 294° West 400 460 34,000  Level Kansas City Center
08:30PM 37.0508 -100.1003 298° West 395 455 34,000  Level Kansas City Center
08:31PM 37.0983 -100.2194 297° West 397 457 34,000  Level Kansas City Center
08:32PM 37.1533 -100.3592 296° West 400 460 34,000  Level Kansas City Center
08:33PM 37.2003 -100.4797 296° West 401 461 34,000  Level Kansas City Center
08:34PM 37.2472 -100.6000 296° West 399 459 34,000  Level Kansas City Center
08:35PM 37.3006 -100.7403 296° West 398 458 34,000  Level Kansas City Center
08:36PM 37.3486 -100.8608 297° West 400 460 34,000  Level Kansas City Center
08:37PM 37.4008 -101.0014 295° West 395 455 34,000  Level Kansas City Center
08:38PM 37.4478 -101.1222 296° West 397 457 34,000  Level Kansas City Center
08:39PM 37.4953 -101.2444 296° West 400 460 34,000  Level Kansas City Center
08:40PM 37.5500 -101.3883 296° West 404 465 34,000  Level Kansas City Center
08:41PM 37.5967 -101.5125 295° West 407 468 34,000  Level Kansas City Center
08:42PM 37.6519 -101.6558 296° West 407 468 34,000  Level Kansas City Center
08:43PM 37.6981 -101.7794 295° West 406 467 34,000  Level Kansas City Center
08:45PM 37.7522 -101.9233 295° West 406 467 34,000  Level Kansas City Center
08:46PM 37.7975 -102.0464 295° West 405 466 34,000  Level Kansas City Center
08:46PM 37.8389 -102.1456 298° West 401 461 34,000  Level Denver Center
08:47PM 37.9272 -102.2647 313° West 411 473 34,000  Level Denver Center
08:48PM 38.0047 -102.3683 314° West 419 482 34,000  Level Denver Center
08:49PM 38.0811 -102.4731 313° West 421 484 34,000  Level Denver Center
08:50PM 38.1725 -102.5947 314° West 426 490 34,000  Level Denver Center
08:52PM 38.2475 -102.7008 312° West 423 487 34,000  Level Denver Center
08:53PM 38.3369 -102.8228 313° West 422 486 34,000  Level Denver Center
08:54PM 38.4125 -102.9261 313° West 419 482 34,000  Level Denver Center
08:55PM 38.4992 -103.0492 312° West 417 480 34,000  Level Denver Center
08:56PM 38.5808 -103.1608 313° West 420 483 34,000  Level Denver Center
08:57PM 38.6569 -103.2669 313° West 423 487 34,000  Level Denver Center
08:58PM 38.7447 -103.3917 312° West 423 487 34,000 -360 Level Denver Center
08:59PM 38.8217 -103.4978 313° West 424 488 33,300 -1,800 Descending Denver Center
09:00PM 38.9094 -103.6236 312° West 425 489 30,400 -2,460 Descending Denver Center
09:01PM 38.9836 -103.7286 312° West 417 480 28,300 -2,040 Descending Denver Center
09:02PM 39.0550 -103.8303 312° West 405 466 26,300 -2,100 Descending Denver Center
09:03PM 39.1344 -103.9447 312° West 388 447 24,000 -2,040 Descending Denver Center
09:04PM 39.2006 -104.0403 312° West 379 436 22,100 -1,440 Descending Denver Center
09:05PM 39.2772 -104.1442 314° West 353 406 21,100 -1,320 Descending Denver Center
09:06PM 39.3567 -104.2044 330° Northwest 331 381 19,500 -1,560 Descending Denver Center
09:07PM 39.4328 -104.2683 327° Northwest 328 377 17,900 -1,260 Descending Denver Center
09:08PM 39.5181 -104.3356 329° Northwest 333 383 17,000 -900 Descending Denver Center
09:09PM 39.5919 -104.3969 327° Northwest 317 365 16,100 -1,140 Descending Denver Center
09:10PM 39.6658 -104.4564 328° Northwest 314 361 14,700 -1,500 Descending Denver Center
09:11PM 39.7453 -104.5186 329° Northwest 311 358 13,100 -1,500 Descending Denver Center
09:12PM 39.8372 -104.5214 359° North 331 381 11,600 -1,020 Descending Denver Center
09:13PM 39.9311 -104.5211 360° North 317 365 11,000 -840 Descending Denver Center
09:14PM 40.0094 -104.5189 North 286 329 9,900 -1,140 Descending Denver Center
09:15PM 40.0872 -104.5161 North 281 323 8,700 -1,200 Descending Denver Center
09:16PM 40.1403 -104.5633 326° Northwest 253 291 7,500 -840 Descending Denver Center
09:17PM 40.1244 -104.6306 253° West 214 246 7,000 -300 Descending Denver Center
09:18PM 40.0783 -104.6789 219° Southwest 199 229 7,000  Level Denver Center
09:19PM 40.0306 -104.6853 186° South 179 206 7,000 -60 Level Denver Center
09:20PM 39.9814 -104.6858 180° South 177 204 6,900 -540 Descending Denver Center
09:21PM 39.9333 -104.6864 181° South 163 188 6,000 -780 Descending Denver Center
09:22PM 39.8897 -104.6869 181° South 157 181 5,300 -720 Descending Denver Center
09:24PM 39.8617 -104.6732 218° Southwest  Level Estimated
09:31PM 39.8617 -104.6732 218° Southwest  Level Estimated